sensor_id;sensor_type;location;lat;lon;timestamp;P1;durP1;ratioP1;P2;durP2;ratioP2
3601;SDS011;1815;50.950;6.920;2022-12-07T00:04:02;14.43;;;12.75;;
3601;SDS011;1815;50.950;6.920;2022-12-07T00:06:35;16.20;;;14.05;;
3601;SDS011;1815;50.950;6.920;2022-12-07T00:09:06;15.50;;;13.38;;
3601;SDS011;1815;50.950;6.920;2022-12-07T00:11:35;14.95;;;12.30;;
3601;SDS011;1815;50.950;6.920;2022-12-07T00:14:02;16.20;;;12.00;;
3601;SDS011;1815;50.950;6.920;2022-12-07T00:16:30;13.35;;;12.00;;
3601;SDS011;1815;50.950;6.920;2022-12-07T00:18:57;13.27;;;11.90;;
3601;SDS011;1815;50.950;6.920;2022-12-07T00:21:24;16.02;;;13.18;;
3601;SDS011;1815;50.950;6.920;2022-12-07T00:23:52;14.10;;;12.70;;
3601;SDS011;1815;50.950;6.920;2022-12-07T00:26:38;13.63;;;12.02;;
3601;SDS011;1815;50.950;6.920;2022-12-07T00:29:18;13.90;;;11.85;;
3601;SDS011;1815;50.950;6.920;2022-12-07T00:31:45;15.45;;;12.65;;
3601;SDS011;1815;50.950;6.920;2022-12-07T00:34:12;14.30;;;12.73;;
3601;SDS011;1815;50.950;6.920;2022-12-07T00:36:43;15.93;;;13.75;;
3601;SDS011;1815;50.950;6.920;2022-12-07T00:39:09;12.73;;;11.43;;
3601;SDS011;1815;50.950;6.920;2022-12-07T00:41:34;12.80;;;11.00;;
3601;SDS011;1815;50.950;6.920;2022-12-07T00:44:00;16.00;;;11.67;;
3601;SDS011;1815;50.950;6.920;2022-12-07T00:46:26;16.63;;;13.07;;
3601;SDS011;1815;50.950;6.920;2022-12-07T00:48:52;14.73;;;12.40;;
3601;SDS011;1815;50.950;6.920;2022-12-07T00:51:19;15.45;;;13.70;;
3601;SDS011;1815;50.950;6.920;2022-12-07T00:53:46;15.10;;;13.50;;
3601;SDS011;1815;50.950;6.920;2022-12-07T00:56:13;14.75;;;12.43;;
3601;SDS011;1815;50.950;6.920;2022-12-07T00:58:41;14.95;;;12.05;;
3601;SDS011;1815;50.950;6.920;2022-12-07T01:01:07;13.43;;;11.60;;
3601;SDS011;1815;50.950;6.920;2022-12-07T01:03:34;15.18;;;13.15;;
3601;SDS011;1815;50.950;6.920;2022-12-07T01:06:00;13.55;;;12.15;;
3601;SDS011;1815;50.950;6.920;2022-12-07T01:08:27;15.65;;;14.13;;
3601;SDS011;1815;50.950;6.920;2022-12-07T01:11:00;13.25;;;11.82;;
3601;SDS011;1815;50.950;6.920;2022-12-07T01:13:30;15.77;;;13.02;;
3601;SDS011;1815;50.950;6.920;2022-12-07T01:15:58;13.10;;;11.77;;
3601;SDS011;1815;50.950;6.920;2022-12-07T01:18:26;13.00;;;11.68;;
3601;SDS011;1815;50.950;6.920;2022-12-07T01:21:00;13.25;;;11.80;;
3601;SDS011;1815;50.950;6.920;2022-12-07T01:23:31;14.05;;;10.68;;
3601;SDS011;1815;50.950;6.920;2022-12-07T01:25:58;14.85;;;13.25;;
3601;SDS011;1815;50.950;6.920;2022-12-07T01:28:25;18.88;;;13.40;;
3601;SDS011;1815;50.950;6.920;2022-12-07T01:30:56;16.27;;;14.15;;
3601;SDS011;1815;50.950;6.920;2022-12-07T01:33:27;14.68;;;12.80;;
3601;SDS011;1815;50.950;6.920;2022-12-07T01:35:54;15.32;;;13.73;;
3601;SDS011;1815;50.950;6.920;2022-12-07T01:38:20;18.27;;;13.40;;
3601;SDS011;1815;50.950;6.920;2022-12-07T01:40:45;16.00;;;13.80;;
3601;SDS011;1815;50.950;6.920;2022-12-07T01:43:19;14.18;;;12.68;;
3601;SDS011;1815;50.950;6.920;2022-12-07T01:45:46;15.05;;;13.43;;
3601;SDS011;1815;50.950;6.920;2022-12-07T01:48:12;15.63;;;14.03;;
3601;SDS011;1815;50.950;6.920;2022-12-07T01:50:41;15.65;;;12.43;;
3601;SDS011;1815;50.950;6.920;2022-12-07T01:53:09;15.75;;;12.10;;
3601;SDS011;1815;50.950;6.920;2022-12-07T01:55:37;15.65;;;14.07;;
3601;SDS011;1815;50.950;6.920;2022-12-07T01:58:06;17.35;;;13.82;;
3601;SDS011;1815;50.950;6.920;2022-12-07T02:00:33;13.02;;;11.63;;
3601;SDS011;1815;50.950;6.920;2022-12-07T02:05:43;13.95;;;12.25;;
3601;SDS011;1815;50.950;6.920;2022-12-07T02:08:10;19.35;;;14.75;;
3601;SDS011;1815;50.950;6.920;2022-12-07T02:10:38;14.27;;;12.77;;
3601;SDS011;1815;50.950;6.920;2022-12-07T02:15:45;14.13;;;12.65;;
3601;SDS011;1815;50.950;6.920;2022-12-07T02:21:46;13.80;;;12.07;;
3601;SDS011;1815;50.950;6.920;2022-12-07T02:24:31;14.90;;;13.40;;
3601;SDS011;1815;50.950;6.920;2022-12-07T02:30:10;15.05;;;12.45;;
3601;SDS011;1815;50.950;6.920;2022-12-07T02:32:43;17.52;;;12.52;;
3601;SDS011;1815;50.950;6.920;2022-12-07T02:35:28;13.25;;;11.88;;
3601;SDS011;1815;50.950;6.920;2022-12-07T02:38:02;13.85;;;12.07;;
3601;SDS011;1815;50.950;6.920;2022-12-07T02:40:48;13.57;;;12.13;;
3601;SDS011;1815;50.950;6.920;2022-12-07T02:43:28;15.00;;;11.98;;
3601;SDS011;1815;50.950;6.920;2022-12-07T02:46:00;14.15;;;12.60;;
3601;SDS011;1815;50.950;6.920;2022-12-07T02:48:29;19.92;;;14.32;;
3601;SDS011;1815;50.950;6.920;2022-12-07T02:50:58;15.20;;;13.30;;
3601;SDS011;1815;50.950;6.920;2022-12-07T02:56:06;15.50;;;13.05;;
3601;SDS011;1815;50.950;6.920;2022-12-07T02:58:55;14.43;;;12.90;;
3601;SDS011;1815;50.950;6.920;2022-12-07T03:10:32;13.40;;;12.00;;
3601;SDS011;1815;50.950;6.920;2022-12-07T03:13:09;16.33;;;14.45;;
3601;SDS011;1815;50.950;6.920;2022-12-07T03:15:50;18.55;;;13.80;;
3601;SDS011;1815;50.950;6.920;2022-12-07T03:18:29;16.00;;;14.10;;
3601;SDS011;1815;50.950;6.920;2022-12-07T03:21:01;16.05;;;14.02;;
3601;SDS011;1815;50.950;6.920;2022-12-07T03:23:29;18.65;;;15.77;;
3601;SDS011;1815;50.950;6.920;2022-12-07T03:26:00;16.50;;;14.80;;
3601;SDS011;1815;50.950;6.920;2022-12-07T03:28:31;17.23;;;14.57;;
3601;SDS011;1815;50.950;6.920;2022-12-07T03:31:12;17.02;;;15.32;;
3601;SDS011;1815;50.950;6.920;2022-12-07T03:36:30;17.67;;;14.93;;
3601;SDS011;1815;50.950;6.920;2022-12-07T03:41:48;16.63;;;14.15;;
3601;SDS011;1815;50.950;6.920;2022-12-07T03:44:15;15.95;;;14.23;;
3601;SDS011;1815;50.950;6.920;2022-12-07T03:46:53;17.92;;;15.73;;
3601;SDS011;1815;50.950;6.920;2022-12-07T03:55:11;17.60;;;15.55;;
3601;SDS011;1815;50.950;6.920;2022-12-07T03:57:44;17.55;;;14.65;;
3601;SDS011;1815;50.950;6.920;2022-12-07T04:00:11;18.42;;;15.75;;
3601;SDS011;1815;50.950;6.920;2022-12-07T04:02:38;17.88;;;15.07;;
3601;SDS011;1815;50.950;6.920;2022-12-07T04:05:05;16.88;;;13.90;;
3601;SDS011;1815;50.950;6.920;2022-12-07T04:07:31;15.10;;;13.50;;
3601;SDS011;1815;50.950;6.920;2022-12-07T04:09:57;15.90;;;14.27;;
3601;SDS011;1815;50.950;6.920;2022-12-07T04:12:22;17.17;;;13.60;;
3601;SDS011;1815;50.950;6.920;2022-12-07T04:14:48;21.03;;;15.20;;
3601;SDS011;1815;50.950;6.920;2022-12-07T04:17:14;16.27;;;14.55;;
3601;SDS011;1815;50.950;6.920;2022-12-07T04:19:40;18.73;;;15.33;;
3601;SDS011;1815;50.950;6.920;2022-12-07T04:22:06;15.17;;;13.67;;
3601;SDS011;1815;50.950;6.920;2022-12-07T04:24:32;17.83;;;15.38;;
3601;SDS011;1815;50.950;6.920;2022-12-07T04:26:58;18.40;;;16.05;;
3601;SDS011;1815;50.950;6.920;2022-12-07T04:29:24;17.33;;;15.33;;
3601;SDS011;1815;50.950;6.920;2022-12-07T04:31:51;17.25;;;15.45;;
3601;SDS011;1815;50.950;6.920;2022-12-07T04:34:17;17.73;;;14.37;;
3601;SDS011;1815;50.950;6.920;2022-12-07T04:36:44;17.83;;;14.68;;
3601;SDS011;1815;50.950;6.920;2022-12-07T04:39:18;20.98;;;15.68;;
3601;SDS011;1815;50.950;6.920;2022-12-07T04:41:45;16.52;;;14.02;;
3601;SDS011;1815;50.950;6.920;2022-12-07T04:44:11;15.00;;;13.50;;
3601;SDS011;1815;50.950;6.920;2022-12-07T04:46:39;15.00;;;13.25;;
3601;SDS011;1815;50.950;6.920;2022-12-07T04:49:06;17.83;;;15.27;;
3601;SDS011;1815;50.950;6.920;2022-12-07T04:51:32;20.00;;;15.67;;
3601;SDS011;1815;50.950;6.920;2022-12-07T04:53:57;16.47;;;14.77;;
3601;SDS011;1815;50.950;6.920;2022-12-07T04:56:23;16.90;;;14.65;;
3601;SDS011;1815;50.950;6.920;2022-12-07T04:58:50;17.03;;;14.83;;
3601;SDS011;1815;50.950;6.920;2022-12-07T05:01:17;15.38;;;13.75;;
3601;SDS011;1815;50.950;6.920;2022-12-07T05:03:44;15.88;;;13.93;;
3601;SDS011;1815;50.950;6.920;2022-12-07T05:06:10;17.03;;;15.23;;
3601;SDS011;1815;50.950;6.920;2022-12-07T05:08:36;16.20;;;14.60;;
3601;SDS011;1815;50.950;6.920;2022-12-07T05:11:02;18.13;;;14.52;;
3601;SDS011;1815;50.950;6.920;2022-12-07T05:13:30;18.40;;;14.65;;
3601;SDS011;1815;50.950;6.920;2022-12-07T05:15:57;13.55;;;12.05;;
3601;SDS011;1815;50.950;6.920;2022-12-07T05:18:23;16.75;;;14.40;;
3601;SDS011;1815;50.950;6.920;2022-12-07T05:20:49;17.58;;;14.77;;
3601;SDS011;1815;50.950;6.920;2022-12-07T05:23:16;15.45;;;13.85;;
3601;SDS011;1815;50.950;6.920;2022-12-07T05:25:42;18.90;;;14.80;;
3601;SDS011;1815;50.950;6.920;2022-12-07T05:28:08;17.30;;;15.10;;
3601;SDS011;1815;50.950;6.920;2022-12-07T05:30:34;18.33;;;15.40;;
3601;SDS011;1815;50.950;6.920;2022-12-07T05:33:00;17.08;;;15.07;;
3601;SDS011;1815;50.950;6.920;2022-12-07T05:35:28;19.00;;;15.35;;
3601;SDS011;1815;50.950;6.920;2022-12-07T05:37:54;15.25;;;13.65;;
3601;SDS011;1815;50.950;6.920;2022-12-07T05:40:22;15.52;;;13.90;;
3601;SDS011;1815;50.950;6.920;2022-12-07T05:42:47;17.60;;;14.10;;
3601;SDS011;1815;50.950;6.920;2022-12-07T05:45:13;15.27;;;13.23;;
3601;SDS011;1815;50.950;6.920;2022-12-07T05:47:39;15.13;;;13.63;;
3601;SDS011;1815;50.950;6.920;2022-12-07T05:50:05;16.13;;;13.17;;
3601;SDS011;1815;50.950;6.920;2022-12-07T05:52:31;17.35;;;14.52;;
3601;SDS011;1815;50.950;6.920;2022-12-07T05:54:57;16.07;;;14.03;;
3601;SDS011;1815;50.950;6.920;2022-12-07T05:57:23;17.83;;;14.67;;
3601;SDS011;1815;50.950;6.920;2022-12-07T05:59:49;21.17;;;15.83;;
3601;SDS011;1815;50.950;6.920;2022-12-07T06:02:15;16.83;;;13.30;;
3601;SDS011;1815;50.950;6.920;2022-12-07T06:04:42;14.70;;;13.15;;
3601;SDS011;1815;50.950;6.920;2022-12-07T06:07:10;16.58;;;13.88;;
3601;SDS011;1815;50.950;6.920;2022-12-07T06:09:37;16.33;;;14.52;;
3601;SDS011;1815;50.950;6.920;2022-12-07T06:12:03;15.33;;;13.73;;
3601;SDS011;1815;50.950;6.920;2022-12-07T06:14:48;16.83;;;13.52;;
3601;SDS011;1815;50.950;6.920;2022-12-07T06:17:14;15.50;;;13.10;;
3601;SDS011;1815;50.950;6.920;2022-12-07T06:19:40;15.32;;;13.65;;
3601;SDS011;1815;50.950;6.920;2022-12-07T06:22:06;18.30;;;14.63;;
3601;SDS011;1815;50.950;6.920;2022-12-07T06:24:34;17.88;;;13.85;;
3601;SDS011;1815;50.950;6.920;2022-12-07T06:27:00;17.45;;;14.35;;
3601;SDS011;1815;50.950;6.920;2022-12-07T06:29:26;16.48;;;14.82;;
3601;SDS011;1815;50.950;6.920;2022-12-07T06:31:52;19.23;;;14.10;;
3601;SDS011;1815;50.950;6.920;2022-12-07T06:34:19;19.70;;;16.13;;
3601;SDS011;1815;50.950;6.920;2022-12-07T06:36:49;15.85;;;14.32;;
3601;SDS011;1815;50.950;6.920;2022-12-07T06:39:20;17.50;;;15.65;;
3601;SDS011;1815;50.950;6.920;2022-12-07T06:41:48;21.77;;;15.30;;
3601;SDS011;1815;50.950;6.920;2022-12-07T06:44:14;17.98;;;16.08;;
3601;SDS011;1815;50.950;6.920;2022-12-07T06:46:40;23.10;;;16.50;;
3601;SDS011;1815;50.950;6.920;2022-12-07T06:49:06;18.40;;;16.37;;
3601;SDS011;1815;50.950;6.920;2022-12-07T06:51:32;17.02;;;15.20;;
3601;SDS011;1815;50.950;6.920;2022-12-07T06:54:02;17.02;;;15.23;;
3601;SDS011;1815;50.950;6.920;2022-12-07T06:56:29;19.67;;;15.85;;
3601;SDS011;1815;50.950;6.920;2022-12-07T06:58:55;21.58;;;15.82;;
3601;SDS011;1815;50.950;6.920;2022-12-07T07:01:21;18.10;;;15.57;;
3601;SDS011;1815;50.950;6.920;2022-12-07T07:03:46;17.87;;;15.40;;
3601;SDS011;1815;50.950;6.920;2022-12-07T07:06:13;16.97;;;14.17;;
3601;SDS011;1815;50.950;6.920;2022-12-07T07:08:39;19.20;;;15.82;;
3601;SDS011;1815;50.950;6.920;2022-12-07T07:11:06;18.63;;;15.70;;
3601;SDS011;1815;50.950;6.920;2022-12-07T07:13:32;18.15;;;16.17;;
3601;SDS011;1815;50.950;6.920;2022-12-07T07:15:58;16.20;;;14.52;;
3601;SDS011;1815;50.950;6.920;2022-12-07T07:18:24;17.63;;;15.73;;
3601;SDS011;1815;50.950;6.920;2022-12-07T07:20:50;17.05;;;15.25;;
3601;SDS011;1815;50.950;6.920;2022-12-07T07:23:17;21.10;;;15.80;;
3601;SDS011;1815;50.950;6.920;2022-12-07T07:25:43;18.95;;;16.10;;
3601;SDS011;1815;50.950;6.920;2022-12-07T07:28:09;17.80;;;15.82;;
3601;SDS011;1815;50.950;6.920;2022-12-07T07:30:35;16.47;;;14.40;;
3601;SDS011;1815;50.950;6.920;2022-12-07T07:33:01;19.20;;;15.13;;
3601;SDS011;1815;50.950;6.920;2022-12-07T07:35:29;17.65;;;15.25;;
3601;SDS011;1815;50.950;6.920;2022-12-07T07:37:56;18.23;;;15.88;;
3601;SDS011;1815;50.950;6.920;2022-12-07T07:40:22;20.15;;;17.30;;
3601;SDS011;1815;50.950;6.920;2022-12-07T07:42:52;17.48;;;14.07;;
3601;SDS011;1815;50.950;6.920;2022-12-07T07:45:19;18.48;;;15.25;;
3601;SDS011;1815;50.950;6.920;2022-12-07T07:47:46;17.45;;;14.88;;
3601;SDS011;1815;50.950;6.920;2022-12-07T07:50:12;19.33;;;16.20;;
3601;SDS011;1815;50.950;6.920;2022-12-07T07:52:38;17.67;;;15.70;;
3601;SDS011;1815;50.950;6.920;2022-12-07T07:55:05;20.25;;;15.57;;
3601;SDS011;1815;50.950;6.920;2022-12-07T07:57:35;20.98;;;16.13;;
3601;SDS011;1815;50.950;6.920;2022-12-07T08:00:03;20.55;;;16.08;;
3601;SDS011;1815;50.950;6.920;2022-12-07T08:02:37;17.77;;;15.63;;
3601;SDS011;1815;50.950;6.920;2022-12-07T08:05:03;18.63;;;16.60;;
3601;SDS011;1815;50.950;6.920;2022-12-07T08:07:30;19.35;;;15.40;;
3601;SDS011;1815;50.950;6.920;2022-12-07T08:09:56;16.23;;;14.57;;
3601;SDS011;1815;50.950;6.920;2022-12-07T08:12:22;17.40;;;15.63;;
3601;SDS011;1815;50.950;6.920;2022-12-07T08:14:48;16.23;;;14.57;;
3601;SDS011;1815;50.950;6.920;2022-12-07T08:21:20;16.00;;;14.40;;
3601;SDS011;1815;50.950;6.920;2022-12-07T08:23:46;15.07;;;12.80;;
3601;SDS011;1815;50.950;6.920;2022-12-07T08:26:13;15.30;;;13.87;;
3601;SDS011;1815;50.950;6.920;2022-12-07T08:28:40;16.00;;;14.30;;
3601;SDS011;1815;50.950;6.920;2022-12-07T08:31:07;15.48;;;13.45;;
3601;SDS011;1815;50.950;6.920;2022-12-07T08:33:36;18.70;;;15.10;;
3601;SDS011;1815;50.950;6.920;2022-12-07T08:36:06;17.15;;;13.27;;
3601;SDS011;1815;50.950;6.920;2022-12-07T08:38:37;19.75;;;14.15;;
3601;SDS011;1815;50.950;6.920;2022-12-07T08:41:04;19.40;;;13.63;;
3601;SDS011;1815;50.950;6.920;2022-12-07T08:43:30;15.05;;;13.40;;
3601;SDS011;1815;50.950;6.920;2022-12-07T08:46:08;16.13;;;12.98;;
3601;SDS011;1815;50.950;6.920;2022-12-07T08:48:34;15.15;;;13.43;;
3601;SDS011;1815;50.950;6.920;2022-12-07T08:51:03;13.30;;;11.93;;
3601;SDS011;1815;50.950;6.920;2022-12-07T08:53:29;14.60;;;11.90;;
3601;SDS011;1815;50.950;6.920;2022-12-07T08:55:55;16.57;;;12.50;;
3601;SDS011;1815;50.950;6.920;2022-12-07T08:58:22;14.15;;;12.80;;
3601;SDS011;1815;50.950;6.920;2022-12-07T09:00:48;14.88;;;11.55;;
3601;SDS011;1815;50.950;6.920;2022-12-07T09:03:14;13.07;;;11.60;;
3601;SDS011;1815;50.950;6.920;2022-12-07T09:05:39;14.57;;;11.93;;
3601;SDS011;1815;50.950;6.920;2022-12-07T09:08:05;13.93;;;12.03;;
3601;SDS011;1815;50.950;6.920;2022-12-07T09:10:32;13.68;;;11.90;;
3601;SDS011;1815;50.950;6.920;2022-12-07T09:12:58;11.83;;;10.63;;
3601;SDS011;1815;50.950;6.920;2022-12-07T09:15:29;10.30;;;8.48;;
3601;SDS011;1815;50.950;6.920;2022-12-07T09:17:56;13.05;;;10.75;;
3601;SDS011;1815;50.950;6.920;2022-12-07T09:20:22;15.10;;;11.32;;
3601;SDS011;1815;50.950;6.920;2022-12-07T09:22:48;12.03;;;9.90;;
3601;SDS011;1815;50.950;6.920;2022-12-07T09:25:13;10.90;;;9.77;;
3601;SDS011;1815;50.950;6.920;2022-12-07T09:27:39;14.40;;;11.37;;
3601;SDS011;1815;50.950;6.920;2022-12-07T09:30:06;12.43;;;10.77;;
3601;SDS011;1815;50.950;6.920;2022-12-07T09:32:32;14.85;;;10.75;;
3601;SDS011;1815;50.950;6.920;2022-12-07T09:34:58;11.50;;;10.30;;
3601;SDS011;1815;50.950;6.920;2022-12-07T09:37:24;12.50;;;9.40;;
3601;SDS011;1815;50.950;6.920;2022-12-07T09:39:50;11.80;;;10.43;;
3601;SDS011;1815;50.950;6.920;2022-12-07T09:45:05;12.50;;;10.95;;
3601;SDS011;1815;50.950;6.920;2022-12-07T09:47:37;14.77;;;10.80;;
3601;SDS011;1815;50.950;6.920;2022-12-07T09:50:04;9.00;;;8.10;;
3601;SDS011;1815;50.950;6.920;2022-12-07T09:52:36;12.15;;;9.57;;
3601;SDS011;1815;50.950;6.920;2022-12-07T09:55:02;11.23;;;8.83;;
3601;SDS011;1815;50.950;6.920;2022-12-07T09:57:30;22.63;;;10.82;;
3601;SDS011;1815;50.950;6.920;2022-12-07T10:00:00;9.77;;;8.73;;
3601;SDS011;1815;50.950;6.920;2022-12-07T10:05:04;11.55;;;9.13;;
3601;SDS011;1815;50.950;6.920;2022-12-07T10:07:32;9.25;;;7.25;;
3601;SDS011;1815;50.950;6.920;2022-12-07T10:09:57;10.83;;;8.10;;
3601;SDS011;1815;50.950;6.920;2022-12-07T10:12:24;8.07;;;7.28;;
3601;SDS011;1815;50.950;6.920;2022-12-07T10:14:59;11.10;;;8.10;;
3601;SDS011;1815;50.950;6.920;2022-12-07T10:20:14;10.93;;;7.70;;
3601;SDS011;1815;50.950;6.920;2022-12-07T10:23:14;8.88;;;7.15;;
3601;SDS011;1815;50.950;6.920;2022-12-07T10:25:39;9.75;;;8.15;;
3601;SDS011;1815;50.950;6.920;2022-12-07T10:31:01;14.07;;;9.70;;
3601;SDS011;1815;50.950;6.920;2022-12-07T10:33:50;12.10;;;8.50;;
3601;SDS011;1815;50.950;6.920;2022-12-07T10:39:19;17.38;;;9.25;;
3601;SDS011;1815;50.950;6.920;2022-12-07T10:42:20;10.82;;;8.25;;
3601;SDS011;1815;50.950;6.920;2022-12-07T10:44:40;13.02;;;9.80;;
3601;SDS011;1815;50.950;6.920;2022-12-07T10:55:31;11.00;;;8.10;;
3601;SDS011;1815;50.950;6.920;2022-12-07T11:01:13;10.30;;;7.07;;
3601;SDS011;1815;50.950;6.920;2022-12-07T11:06:43;11.77;;;8.45;;
3601;SDS011;1815;50.950;6.920;2022-12-07T11:12:06;11.77;;;7.90;;
3601;SDS011;1815;50.950;6.920;2022-12-07T11:14:52;13.65;;;8.23;;
3601;SDS011;1815;50.950;6.920;2022-12-07T11:17:39;15.63;;;10.05;;
3601;SDS011;1815;50.950;6.920;2022-12-07T11:28:18;11.52;;;8.88;;
3601;SDS011;1815;50.950;6.920;2022-12-07T11:39:10;10.85;;;7.90;;
3601;SDS011;1815;50.950;6.920;2022-12-07T11:41:55;10.40;;;7.35;;
3601;SDS011;1815;50.950;6.920;2022-12-07T11:52:58;10.30;;;7.03;;
3601;SDS011;1815;50.950;6.920;2022-12-07T12:03:44;19.30;;;14.07;;
3601;SDS011;1815;50.950;6.920;2022-12-07T12:06:31;16.38;;;12.00;;
3601;SDS011;1815;50.950;6.920;2022-12-07T12:09:09;15.70;;;10.77;;
3601;SDS011;1815;50.950;6.920;2022-12-07T12:25:42;17.85;;;12.50;;
3601;SDS011;1815;50.950;6.920;2022-12-07T12:33:50;15.05;;;11.10;;
3601;SDS011;1815;50.950;6.920;2022-12-07T12:36:26;14.20;;;9.38;;
3601;SDS011;1815;50.950;6.920;2022-12-07T12:47:02;14.85;;;10.80;;
3601;SDS011;1815;50.950;6.920;2022-12-07T12:52:51;11.35;;;8.45;;
3601;SDS011;1815;50.950;6.920;2022-12-07T12:58:35;14.70;;;9.75;;
3601;SDS011;1815;50.950;6.920;2022-12-07T13:01:45;12.80;;;9.88;;
3601;SDS011;1815;50.950;6.920;2022-12-07T13:04:00;13.43;;;10.18;;
3601;SDS011;1815;50.950;6.920;2022-12-07T13:08:54;16.70;;;11.93;;
3601;SDS011;1815;50.950;6.920;2022-12-07T13:11:30;13.63;;;10.40;;
3601;SDS011;1815;50.950;6.920;2022-12-07T13:17:12;15.07;;;9.30;;
3601;SDS011;1815;50.950;6.920;2022-12-07T13:20:01;15.20;;;8.95;;
3601;SDS011;1815;50.950;6.920;2022-12-07T13:25:05;11.65;;;7.82;;
3601;SDS011;1815;50.950;6.920;2022-12-07T13:27:33;13.80;;;9.13;;
3601;SDS011;1815;50.950;6.920;2022-12-07T13:30:05;13.48;;;10.52;;
3601;SDS011;1815;50.950;6.920;2022-12-07T13:32:41;14.25;;;10.52;;
3601;SDS011;1815;50.950;6.920;2022-12-07T13:38:13;16.25;;;12.68;;
3601;SDS011;1815;50.950;6.920;2022-12-07T13:43:28;13.80;;;9.82;;
3601;SDS011;1815;50.950;6.920;2022-12-07T13:45:59;14.30;;;10.13;;
3601;SDS011;1815;50.950;6.920;2022-12-07T13:51:01;15.75;;;10.00;;
3601;SDS011;1815;50.950;6.920;2022-12-07T13:53:28;16.77;;;10.70;;
3601;SDS011;1815;50.950;6.920;2022-12-07T13:55:59;12.95;;;8.57;;
3601;SDS011;1815;50.950;6.920;2022-12-07T13:58:26;12.98;;;8.07;;
3601;SDS011;1815;50.950;6.920;2022-12-07T14:00:55;12.85;;;8.07;;
3601;SDS011;1815;50.950;6.920;2022-12-07T14:03:25;12.40;;;8.32;;
3601;SDS011;1815;50.950;6.920;2022-12-07T14:09:15;8.98;;;7.35;;
3601;SDS011;1815;50.950;6.920;2022-12-07T14:11:45;12.77;;;7.97;;
3601;SDS011;1815;50.950;6.920;2022-12-07T14:14:13;10.23;;;7.60;;
3601;SDS011;1815;50.950;6.920;2022-12-07T14:16:56;12.38;;;9.57;;
3601;SDS011;1815;50.950;6.920;2022-12-07T14:22:38;11.77;;;8.00;;
3601;SDS011;1815;50.950;6.920;2022-12-07T14:27:40;13.30;;;10.10;;
3601;SDS011;1815;50.950;6.920;2022-12-07T14:30:15;18.17;;;10.40;;
3601;SDS011;1815;50.950;6.920;2022-12-07T14:32:43;14.35;;;10.02;;
3601;SDS011;1815;50.950;6.920;2022-12-07T14:35:14;10.45;;;9.27;;
3601;SDS011;1815;50.950;6.920;2022-12-07T14:37:43;10.50;;;8.10;;
3601;SDS011;1815;50.950;6.920;2022-12-07T14:40:15;12.05;;;8.45;;
3601;SDS011;1815;50.950;6.920;2022-12-07T14:42:50;12.18;;;8.00;;
3601;SDS011;1815;50.950;6.920;2022-12-07T14:45:19;11.20;;;7.45;;
3601;SDS011;1815;50.950;6.920;2022-12-07T14:47:47;11.10;;;7.60;;
3601;SDS011;1815;50.950;6.920;2022-12-07T14:50:14;10.45;;;7.50;;
3601;SDS011;1815;50.950;6.920;2022-12-07T14:52:42;10.30;;;8.18;;
3601;SDS011;1815;50.950;6.920;2022-12-07T14:55:14;9.68;;;8.30;;
3601;SDS011;1815;50.950;6.920;2022-12-07T14:57:52;10.30;;;8.02;;
3601;SDS011;1815;50.950;6.920;2022-12-07T15:00:18;10.95;;;7.75;;
3601;SDS011;1815;50.950;6.920;2022-12-07T15:02:46;12.10;;;9.20;;
3601;SDS011;1815;50.950;6.920;2022-12-07T15:05:12;11.65;;;7.28;;
3601;SDS011;1815;50.950;6.920;2022-12-07T15:07:39;9.77;;;7.47;;
3601;SDS011;1815;50.950;6.920;2022-12-07T15:10:05;9.07;;;5.95;;
3601;SDS011;1815;50.950;6.920;2022-12-07T15:12:37;9.73;;;7.15;;
3601;SDS011;1815;50.950;6.920;2022-12-07T15:15:07;7.87;;;5.67;;
3601;SDS011;1815;50.950;6.920;2022-12-07T15:17:41;10.80;;;8.60;;
3601;SDS011;1815;50.950;6.920;2022-12-07T15:20:09;12.35;;;7.63;;
3601;SDS011;1815;50.950;6.920;2022-12-07T15:22:38;10.95;;;8.95;;
3601;SDS011;1815;50.950;6.920;2022-12-07T15:25:04;9.07;;;5.70;;
3601;SDS011;1815;50.950;6.920;2022-12-07T15:27:31;9.45;;;3.92;;
3601;SDS011;1815;50.950;6.920;2022-12-07T15:29:57;5.65;;;3.40;;
3601;SDS011;1815;50.950;6.920;2022-12-07T15:32:22;7.27;;;4.07;;
3601;SDS011;1815;50.950;6.920;2022-12-07T15:34:48;6.07;;;4.17;;
3601;SDS011;1815;50.950;6.920;2022-12-07T15:37:15;4.50;;;3.47;;
3601;SDS011;1815;50.950;6.920;2022-12-07T15:39:41;4.70;;;4.03;;
3601;SDS011;1815;50.950;6.920;2022-12-07T15:42:07;5.40;;;3.22;;
3601;SDS011;1815;50.950;6.920;2022-12-07T15:44:33;6.73;;;3.10;;
3601;SDS011;1815;50.950;6.920;2022-12-07T15:47:17;5.65;;;3.15;;
3601;SDS011;1815;50.950;6.920;2022-12-07T15:49:43;5.53;;;3.90;;
3601;SDS011;1815;50.950;6.920;2022-12-07T15:52:09;7.17;;;6.07;;
3601;SDS011;1815;50.950;6.920;2022-12-07T15:54:35;5.93;;;4.90;;
3601;SDS011;1815;50.950;6.920;2022-12-07T15:57:01;10.38;;;6.25;;
3601;SDS011;1815;50.950;6.920;2022-12-07T15:59:27;7.15;;;5.93;;
3601;SDS011;1815;50.950;6.920;2022-12-07T16:01:54;7.50;;;6.30;;
3601;SDS011;1815;50.950;6.920;2022-12-07T16:04:19;10.27;;;6.05;;
3601;SDS011;1815;50.950;6.920;2022-12-07T16:06:45;6.00;;;4.97;;
3601;SDS011;1815;50.950;6.920;2022-12-07T16:09:11;9.30;;;6.93;;
3601;SDS011;1815;50.950;6.920;2022-12-07T16:11:37;8.90;;;5.60;;
3601;SDS011;1815;50.950;6.920;2022-12-07T16:14:03;7.50;;;5.20;;
3601;SDS011;1815;50.950;6.920;2022-12-07T16:16:29;7.07;;;4.80;;
3601;SDS011;1815;50.950;6.920;2022-12-07T16:18:55;6.63;;;5.57;;
3601;SDS011;1815;50.950;6.920;2022-12-07T16:21:22;7.82;;;5.15;;
3601;SDS011;1815;50.950;6.920;2022-12-07T16:23:48;7.33;;;4.93;;
3601;SDS011;1815;50.950;6.920;2022-12-07T16:26:15;7.67;;;4.77;;
3601;SDS011;1815;50.950;6.920;2022-12-07T16:28:42;10.73;;;8.90;;
3601;SDS011;1815;50.950;6.920;2022-12-07T16:31:10;13.45;;;12.20;;
3601;SDS011;1815;50.950;6.920;2022-12-07T16:33:39;14.52;;;10.68;;
3601;SDS011;1815;50.950;6.920;2022-12-07T16:36:06;8.15;;;7.35;;
3601;SDS011;1815;50.950;6.920;2022-12-07T16:38:33;12.80;;;11.50;;
3601;SDS011;1815;50.950;6.920;2022-12-07T16:41:00;11.38;;;10.18;;
3601;SDS011;1815;50.950;6.920;2022-12-07T16:43:26;13.63;;;9.00;;
3601;SDS011;1815;50.950;6.920;2022-12-07T16:45:52;7.97;;;7.17;;
3601;SDS011;1815;50.950;6.920;2022-12-07T16:48:18;13.23;;;10.50;;
3601;SDS011;1815;50.950;6.920;2022-12-07T16:50:44;9.07;;;7.88;;
3601;SDS011;1815;50.950;6.920;2022-12-07T16:53:11;6.55;;;5.95;;
3601;SDS011;1815;50.950;6.920;2022-12-07T16:55:37;8.65;;;7.13;;
3601;SDS011;1815;50.950;6.920;2022-12-07T16:58:03;6.78;;;6.18;;
3601;SDS011;1815;50.950;6.920;2022-12-07T17:00:30;9.45;;;4.43;;
3601;SDS011;1815;50.950;6.920;2022-12-07T17:02:56;7.13;;;5.53;;
3601;SDS011;1815;50.950;6.920;2022-12-07T17:05:22;8.82;;;5.93;;
3601;SDS011;1815;50.950;6.920;2022-12-07T17:07:48;8.05;;;5.93;;
3601;SDS011;1815;50.950;6.920;2022-12-07T17:10:14;8.77;;;6.43;;
3601;SDS011;1815;50.950;6.920;2022-12-07T17:12:40;7.40;;;5.80;;
3601;SDS011;1815;50.950;6.920;2022-12-07T17:15:06;9.90;;;6.70;;
3601;SDS011;1815;50.950;6.920;2022-12-07T17:17:56;6.50;;;5.50;;
3601;SDS011;1815;50.950;6.920;2022-12-07T17:20:24;10.50;;;7.55;;
3601;SDS011;1815;50.950;6.920;2022-12-07T17:22:51;14.95;;;10.10;;
3601;SDS011;1815;50.950;6.920;2022-12-07T17:25:18;13.18;;;9.40;;
3601;SDS011;1815;50.950;6.920;2022-12-07T17:27:45;11.68;;;8.25;;
3601;SDS011;1815;50.950;6.920;2022-12-07T17:30:11;14.98;;;10.70;;
3601;SDS011;1815;50.950;6.920;2022-12-07T17:32:38;13.82;;;9.68;;
3601;SDS011;1815;50.950;6.920;2022-12-07T17:35:04;12.50;;;8.40;;
3601;SDS011;1815;50.950;6.920;2022-12-07T17:37:31;10.85;;;8.20;;
3601;SDS011;1815;50.950;6.920;2022-12-07T17:39:57;9.52;;;7.38;;
3601;SDS011;1815;50.950;6.920;2022-12-07T17:42:24;10.57;;;6.90;;
3601;SDS011;1815;50.950;6.920;2022-12-07T17:45:04;9.20;;;7.75;;
3601;SDS011;1815;50.950;6.920;2022-12-07T17:47:37;9.52;;;7.70;;
3601;SDS011;1815;50.950;6.920;2022-12-07T17:50:04;13.20;;;9.43;;
3601;SDS011;1815;50.950;6.920;2022-12-07T17:52:52;8.90;;;8.05;;